sensor_id;sensor_type;location;lat;lon;timestamp;pressure;altitude;pressure_sealevel;temperature;humidity
13029;BME280;6581;42.662;23.402;2022-09-02T00:01:29;95027.81;;;21.14;100.00
13029;BME280;6581;42.662;23.402;2022-09-02T00:04:01;95034.38;;;21.13;100.00
13029;BME280;6581;42.662;23.402;2022-09-02T00:06:30;95035.88;;;21.14;100.00
13029;BME280;6581;42.662;23.402;2022-09-02T00:08:58;95033.63;;;21.12;100.00
13029;BME280;6581;42.662;23.402;2022-09-02T00:11:28;95029.94;;;21.06;100.00
13029;BME280;6581;42.662;23.402;2022-09-02T00:13:59;95021.88;;;21.06;100.00
13029;BME280;6581;42.662;23.402;2022-09-02T00:16:27;95025.63;;;21.09;100.00
13029;BME280;6581;42.662;23.402;2022-09-02T00:18:56;95019.28;;;21.03;100.00
13029;BME280;6581;42.662;23.402;2022-09-02T00:21:24;95021.66;;;21.01;100.00
13029;BME280;6581;42.662;23.402;2022-09-02T00:23:51;95029.31;;;21.02;100.00
13029;BME280;6581;42.662;23.402;2022-09-02T00:26:20;95029.59;;;21.04;100.00
13029;BME280;6581;42.662;23.402;2022-09-02T00:28:47;95027.56;;;21.08;100.00
13029;BME280;6581;42.662;23.402;2022-09-02T00:31:16;95034.69;;;21.02;100.00
13029;BME280;6581;42.662;23.402;2022-09-02T00:33:43;95041.78;;;21.09;100.00
13029;BME280;6581;42.662;23.402;2022-09-02T00:36:12;95042.88;;;21.11;100.00
13029;BME280;6581;42.662;23.402;2022-09-02T00:38:39;95047.84;;;21.13;100.00
13029;BME280;6581;42.662;23.402;2022-09-02T00:41:09;95039.69;;;21.16;100.00
13029;BME280;6581;42.662;23.402;2022-09-02T00:43:42;95043.31;;;21.22;100.00
13029;BME280;6581;42.662;23.402;2022-09-02T00:46:12;95051.75;;;21.25;100.00
13029;BME280;6581;42.662;23.402;2022-09-02T00:48:44;95054.66;;;21.30;100.00
13029;BME280;6581;42.662;23.402;2022-09-02T00:51:14;95053.13;;;21.29;100.00
13029;BME280;6581;42.662;23.402;2022-09-02T00:53:43;95055.28;;;21.34;100.00
13029;BME280;6581;42.662;23.402;2022-09-02T00:56:15;95057.13;;;21.37;100.00
13029;BME280;6581;42.662;23.402;2022-09-02T00:58:45;95055.81;;;21.42;100.00
13029;BME280;6581;42.662;23.402;2022-09-02T01:01:14;95052.81;;;21.40;100.00
13029;BME280;6581;42.662;23.402;2022-09-02T01:03:43;95056.56;;;21.42;100.00
13029;BME280;6581;42.662;23.402;2022-09-02T01:06:11;95052.47;;;21.38;100.00
13029;BME280;6581;42.662;23.402;2022-09-02T01:08:43;95047.09;;;21.38;100.00
13029;BME280;6581;42.662;23.402;2022-09-02T01:11:12;95045.59;;;21.37;100.00
13029;BME280;6581;42.662;23.402;2022-09-02T01:13:43;95049.78;;;21.38;100.00
13029;BME280;6581;42.662;23.402;2022-09-02T01:16:17;95043.34;;;21.35;100.00
13029;BME280;6581;42.662;23.402;2022-09-02T01:18:51;95043.75;;;21.34;100.00
13029;BME280;6581;42.662;23.402;2022-09-02T01:21:20;95037.84;;;21.26;100.00
13029;BME280;6581;42.662;23.402;2022-09-02T01:23:49;95032.00;;;21.28;100.00
13029;BME280;6581;42.662;23.402;2022-09-02T01:26:17;95033.09;;;21.30;100.00
13029;BME280;6581;42.662;23.402;2022-09-02T01:28:45;95036.97;;;21.29;100.00
13029;BME280;6581;42.662;23.402;2022-09-02T01:31:13;95040.44;;;21.30;100.00
13029;BME280;6581;42.662;23.402;2022-09-02T01:33:40;95038.28;;;21.25;100.00
13029;BME280;6581;42.662;23.402;2022-09-02T01:36:09;95042.13;;;20.98;99.61
13029;BME280;6581;42.662;23.402;2022-09-02T01:38:36;95051.78;;;20.96;99.71
13029;BME280;6581;42.662;23.402;2022-09-02T01:41:05;95048.88;;;20.90;99.56
13029;BME280;6581;42.662;23.402;2022-09-02T01:43:33;95048.56;;;20.88;99.08
13029;BME280;6581;42.662;23.402;2022-09-02T01:46:01;95042.00;;;20.89;97.05
13029;BME280;6581;42.662;23.402;2022-09-02T01:48:30;95037.50;;;20.99;96.57
13029;BME280;6581;42.662;23.402;2022-09-02T01:51:00;95038.22;;;20.99;96.29
13029;BME280;6581;42.662;23.402;2022-09-02T01:53:28;95033.81;;;21.05;96.47
13029;BME280;6581;42.662;23.402;2022-09-02T01:55:57;95029.19;;;21.06;96.51
13029;BME280;6581;42.662;23.402;2022-09-02T01:58:26;95008.94;;;21.01;97.15
13029;BME280;6581;42.662;23.402;2022-09-02T02:00:53;95012.81;;;21.00;96.95
13029;BME280;6581;42.662;23.402;2022-09-02T02:03:22;95005.91;;;20.87;98.09
13029;BME280;6581;42.662;23.402;2022-09-02T02:05:50;95008.81;;;20.92;98.15
13029;BME280;6581;42.662;23.402;2022-09-02T02:08:19;95001.81;;;20.82;98.45
13029;BME280;6581;42.662;23.402;2022-09-02T02:10:47;94986.97;;;20.77;98.84
13029;BME280;6581;42.662;23.402;2022-09-02T02:13:15;94997.84;;;20.74;98.92
13029;BME280;6581;42.662;23.402;2022-09-02T02:15:44;95008.25;;;20.72;98.18
13029;BME280;6581;42.662;23.402;2022-09-02T02:18:12;95013.22;;;20.61;97.80
13029;BME280;6581;42.662;23.402;2022-09-02T02:20:39;95016.34;;;20.72;94.99
13029;BME280;6581;42.662;23.402;2022-09-02T02:23:06;95025.63;;;20.71;94.02
13029;BME280;6581;42.662;23.402;2022-09-02T02:25:34;95015.59;;;20.71;94.20
13029;BME280;6581;42.662;23.402;2022-09-02T02:28:01;95026.91;;;20.66;93.52
13029;BME280;6581;42.662;23.402;2022-09-02T02:30:30;95020.66;;;20.69;93.30
13029;BME280;6581;42.662;23.402;2022-09-02T02:33:01;95020.00;;;20.65;94.17
13029;BME280;6581;42.662;23.402;2022-09-02T02:35:28;95022.75;;;20.49;95.42
13029;BME280;6581;42.662;23.402;2022-09-02T02:37:56;95029.22;;;20.39;95.72
13029;BME280;6581;42.662;23.402;2022-09-02T02:40:24;95025.25;;;20.27;96.07
13029;BME280;6581;42.662;23.402;2022-09-02T02:43:17;95028.66;;;20.15;97.00
13029;BME280;6581;42.662;23.402;2022-09-02T02:45:44;95032.94;;;19.84;98.31
13029;BME280;6581;42.662;23.402;2022-09-02T02:48:13;95028.22;;;19.72;100.00
13029;BME280;6581;42.662;23.402;2022-09-02T02:50:41;95029.41;;;19.71;100.00
13029;BME280;6581;42.662;23.402;2022-09-02T02:53:09;95033.81;;;19.65;100.00
13029;BME280;6581;42.662;23.402;2022-09-02T02:55:39;95025.91;;;19.58;100.00
13029;BME280;6581;42.662;23.402;2022-09-02T02:58:06;95026.00;;;19.54;100.00
13029;BME280;6581;42.662;23.402;2022-09-02T03:00:33;95021.63;;;19.60;100.00
13029;BME280;6581;42.662;23.402;2022-09-02T03:03:02;95025.22;;;19.54;100.00
13029;BME280;6581;42.662;23.402;2022-09-02T03:05:32;95017.06;;;19.41;100.00
13029;BME280;6581;42.662;23.402;2022-09-02T03:08:01;95025.72;;;19.48;100.00
13029;BME280;6581;42.662;23.402;2022-09-02T03:10:32;95021.22;;;19.45;100.00
13029;BME280;6581;42.662;23.402;2022-09-02T03:13:00;95027.16;;;19.53;100.00
13029;BME280;6581;42.662;23.402;2022-09-02T03:15:30;95027.41;;;19.59;100.00
13029;BME280;6581;42.662;23.402;2022-09-02T03:17:58;95022.97;;;19.68;100.00
13029;BME280;6581;42.662;23.402;2022-09-02T03:20:52;95030.50;;;19.73;100.00
13029;BME280;6581;42.662;23.402;2022-09-02T03:23:20;95024.03;;;19.71;100.00
13029;BME280;6581;42.662;23.402;2022-09-02T03:25:49;95023.06;;;19.65;100.00
13029;BME280;6581;42.662;23.402;2022-09-02T03:28:26;95019.25;;;19.62;100.00
13029;BME280;6581;42.662;23.402;2022-09-02T03:30:54;95024.97;;;19.64;100.00
13029;BME280;6581;42.662;23.402;2022-09-02T03:33:21;95025.28;;;19.66;100.00
13029;BME280;6581;42.662;23.402;2022-09-02T03:35:49;95026.81;;;19.67;100.00
13029;BME280;6581;42.662;23.402;2022-09-02T03:38:17;95026.00;;;19.70;100.00
13029;BME280;6581;42.662;23.402;2022-09-02T03:40:44;95026.56;;;19.78;100.00
13029;BME280;6581;42.662;23.402;2022-09-02T03:43:12;95031.59;;;19.76;100.00
13029;BME280;6581;42.662;23.402;2022-09-02T03:45:41;95039.81;;;19.85;100.00
13029;BME280;6581;42.662;23.402;2022-09-02T03:48:12;95039.66;;;19.76;100.00
13029;BME280;6581;42.662;23.402;2022-09-02T03:50:43;95046.38;;;19.84;100.00
13029;BME280;6581;42.662;23.402;2022-09-02T03:53:17;95051.97;;;19.89;100.00
13029;BME280;6581;42.662;23.402;2022-09-02T03:55:46;95056.19;;;19.90;100.00
13029;BME280;6581;42.662;23.402;2022-09-02T03:58:13;95061.41;;;19.98;100.00
13029;BME280;6581;42.662;23.402;2022-09-02T04:00:41;95057.59;;;19.95;100.00
13029;BME280;6581;42.662;23.402;2022-09-02T04:03:11;95067.84;;;20.00;100.00
13029;BME280;6581;42.662;23.402;2022-09-02T04:05:38;95073.06;;;20.07;100.00
13029;BME280;6581;42.662;23.402;2022-09-02T04:08:05;95067.44;;;20.02;100.00
13029;BME280;6581;42.662;23.402;2022-09-02T04:10:35;95075.00;;;20.07;100.00
13029;BME280;6581;42.662;23.402;2022-09-02T04:13:04;95073.78;;;20.08;100.00
13029;BME280;6581;42.662;23.402;2022-09-02T04:15:31;95082.19;;;20.10;100.00
13029;BME280;6581;42.662;23.402;2022-09-02T04:18:00;95076.41;;;20.11;100.00
13029;BME280;6581;42.662;23.402;2022-09-02T04:23:45;95078.59;;;20.16;100.00
13029;BME280;6581;42.662;23.402;2022-09-02T04:26:16;95086.13;;;20.21;100.00
13029;BME280;6581;42.662;23.402;2022-09-02T04:28:43;95087.31;;;20.20;100.00
13029;BME280;6581;42.662;23.402;2022-09-02T04:31:13;95093.66;;;20.26;100.00
13029;BME280;6581;42.662;23.402;2022-09-02T04:33:42;95087.03;;;20.31;100.00
13029;BME280;6581;42.662;23.402;2022-09-02T04:36:14;95099.41;;;20.28;100.00
13029;BME280;6581;42.662;23.402;2022-09-02T04:38:44;95092.50;;;20.27;100.00
13029;BME280;6581;42.662;23.402;2022-09-02T04:41:16;95095.53;;;20.29;100.00
13029;BME280;6581;42.662;23.402;2022-09-02T04:43:44;95092.44;;;20.15;100.00
13029;BME280;6581;42.662;23.402;2022-09-02T04:46:14;95101.53;;;20.21;100.00
13029;BME280;6581;42.662;23.402;2022-09-02T04:48:43;95101.03;;;20.10;100.00
13029;BME280;6581;42.662;23.402;2022-09-02T04:51:14;95105.84;;;20.02;100.00
13029;BME280;6581;42.662;23.402;2022-09-02T04:53:42;95099.69;;;20.02;100.00
13029;BME280;6581;42.662;23.402;2022-09-02T04:56:12;95100.53;;;19.99;100.00
13029;BME280;6581;42.662;23.402;2022-09-02T04:58:42;95105.84;;;20.02;100.00
13029;BME280;6581;42.662;23.402;2022-09-02T05:01:14;95104.81;;;19.96;100.00
13029;BME280;6581;42.662;23.402;2022-09-02T05:03:43;95099.25;;;20.03;100.00
13029;BME280;6581;42.662;23.402;2022-09-02T05:06:13;95097.41;;;20.00;100.00
13029;BME280;6581;42.662;23.402;2022-09-02T05:08:41;95106.41;;;20.10;100.00
13029;BME280;6581;42.662;23.402;2022-09-02T05:11:12;95105.03;;;20.18;100.00
13029;BME280;6581;42.662;23.402;2022-09-02T05:13:45;95106.22;;;20.17;100.00
13029;BME280;6581;42.662;23.402;2022-09-02T05:16:20;95106.47;;;20.22;100.00
13029;BME280;6581;42.662;23.402;2022-09-02T05:18:49;95109.31;;;20.31;100.00
13029;BME280;6581;42.662;23.402;2022-09-02T05:21:18;95104.94;;;20.21;100.00
13029;BME280;6581;42.662;23.402;2022-09-02T05:23:46;95114.06;;;20.11;100.00
13029;BME280;6581;42.662;23.402;2022-09-02T05:26:14;95117.34;;;20.03;100.00
13029;BME280;6581;42.662;23.402;2022-09-02T05:28:42;95106.75;;;19.96;100.00
13029;BME280;6581;42.662;23.402;2022-09-02T05:31:36;95103.66;;;19.97;100.00
13029;BME280;6581;42.662;23.402;2022-09-02T05:34:06;95109.19;;;19.90;100.00
13029;BME280;6581;42.662;23.402;2022-09-02T05:36:34;95107.50;;;19.80;100.00
13029;BME280;6581;42.662;23.402;2022-09-02T05:39:02;95114.91;;;19.76;100.00
13029;BME280;6581;42.662;23.402;2022-09-02T05:41:32;95106.00;;;19.79;100.00
13029;BME280;6581;42.662;23.402;2022-09-02T05:44:02;95108.38;;;19.93;100.00
13029;BME280;6581;42.662;23.402;2022-09-02T05:46:32;95104.56;;;20.07;100.00
13029;BME280;6581;42.662;23.402;2022-09-02T05:49:01;95107.47;;;20.12;100.00
13029;BME280;6581;42.662;23.402;2022-09-02T05:52:03;95107.56;;;20.25;100.00
13029;BME280;6581;42.662;23.402;2022-09-02T05:54:50;95111.75;;;20.26;100.00
13029;BME280;6581;42.662;23.402;2022-09-02T05:57:21;95111.84;;;20.39;100.00
13029;BME280;6581;42.662;23.402;2022-09-02T06:00:15;95109.19;;;20.51;100.00
13029;BME280;6581;42.662;23.402;2022-09-02T06:03:15;95112.44;;;20.59;100.00
13029;BME280;6581;42.662;23.402;2022-09-02T06:05:54;95115.50;;;20.73;100.00
13029;BME280;6581;42.662;23.402;2022-09-02T06:08:22;95110.91;;;20.87;100.00
13029;BME280;6581;42.662;23.402;2022-09-02T06:10:49;95113.06;;;20.92;100.00
13029;BME280;6581;42.662;23.402;2022-09-02T06:13:20;95110.09;;;21.02;100.00
13029;BME280;6581;42.662;23.402;2022-09-02T06:16:14;95112.47;;;21.13;99.46
13029;BME280;6581;42.662;23.402;2022-09-02T06:18:42;95121.44;;;21.22;97.64
13029;BME280;6581;42.662;23.402;2022-09-02T06:21:12;95117.03;;;21.29;96.17
13029;BME280;6581;42.662;23.402;2022-09-02T06:23:43;95116.50;;;21.34;96.43
13029;BME280;6581;42.662;23.402;2022-09-02T06:26:13;95118.31;;;21.37;98.51
13029;BME280;6581;42.662;23.402;2022-09-02T06:28:40;95118.22;;;21.40;98.80
13029;BME280;6581;42.662;23.402;2022-09-02T06:31:10;95126.53;;;21.46;98.10
13029;BME280;6581;42.662;23.402;2022-09-02T06:33:38;95119.09;;;21.50;96.96
13029;BME280;6581;42.662;23.402;2022-09-02T06:36:32;95119.63;;;21.45;97.67
13029;BME280;6581;42.662;23.402;2022-09-02T06:39:02;95117.13;;;21.50;97.22
13029;BME280;6581;42.662;23.402;2022-09-02T06:41:33;95127.91;;;21.50;97.24
13029;BME280;6581;42.662;23.402;2022-09-02T06:44:05;95126.97;;;21.44;98.10
13029;BME280;6581;42.662;23.402;2022-09-02T06:46:36;95127.06;;;21.41;97.90
13029;BME280;6581;42.662;23.402;2022-09-02T06:49:07;95129.78;;;21.53;97.00
13029;BME280;6581;42.662;23.402;2022-09-02T06:51:38;95133.31;;;21.50;97.80
13029;BME280;6581;42.662;23.402;2022-09-02T06:54:32;95140.97;;;21.52;96.47
13029;BME280;6581;42.662;23.402;2022-09-02T06:57:08;95140.03;;;21.58;96.63
13029;BME280;6581;42.662;23.402;2022-09-02T06:59:37;95140.75;;;21.59;97.92
13029;BME280;6581;42.662;23.402;2022-09-02T07:02:04;95135.47;;;21.55;97.80
13029;BME280;6581;42.662;23.402;2022-09-02T07:04:32;95133.41;;;21.59;96.84
13029;BME280;6581;42.662;23.402;2022-09-02T07:07:21;95143.91;;;21.57;98.18
13029;BME280;6581;42.662;23.402;2022-09-02T07:09:58;95142.38;;;21.69;96.29
13029;BME280;6581;42.662;23.402;2022-09-02T07:12:26;95147.66;;;21.73;95.41
13029;BME280;6581;42.662;23.402;2022-09-02T07:15:07;95149.03;;;21.77;97.00
13029;BME280;6581;42.662;23.402;2022-09-02T07:17:39;95148.63;;;21.79;95.54
13029;BME280;6581;42.662;23.402;2022-09-02T07:20:11;95152.50;;;21.90;95.96
13029;BME280;6581;42.662;23.402;2022-09-02T07:22:47;95146.78;;;21.88;95.68
13029;BME280;6581;42.662;23.402;2022-09-02T07:25:17;95149.47;;;22.01;94.63
13029;BME280;6581;42.662;23.402;2022-09-02T07:28:12;95140.22;;;22.02;93.23
13029;BME280;6581;42.662;23.402;2022-09-02T07:30:41;95151.50;;;22.09;92.80
13029;BME280;6581;42.662;23.402;2022-09-02T07:33:14;95154.75;;;22.04;92.78
13029;BME280;6581;42.662;23.402;2022-09-02T07:35:44;95158.53;;;22.07;93.96
13029;BME280;6581;42.662;23.402;2022-09-02T07:38:16;95151.00;;;22.02;94.23
13029;BME280;6581;42.662;23.402;2022-09-02T07:41:09;95153.69;;;22.02;92.88
13029;BME280;6581;42.662;23.402;2022-09-02T07:44:03;95153.81;;;21.98;91.03
13029;BME280;6581;42.662;23.402;2022-09-02T07:46:32;95155.13;;;21.94;91.81
13029;BME280;6581;42.662;23.402;2022-09-02T07:49:04;95157.69;;;21.97;92.16
13029;BME280;6581;42.662;23.402;2022-09-02T07:51:32;95155.19;;;21.90;88.46
13029;BME280;6581;42.662;23.402;2022-09-02T07:54:52;95153.47;;;21.96;86.90
13029;BME280;6581;42.662;23.402;2022-09-02T07:57:20;95156.28;;;22.05;87.22
13029;BME280;6581;42.662;23.402;2022-09-02T07:59:47;95158.50;;;22.20;86.00
13029;BME280;6581;42.662;23.402;2022-09-02T08:02:18;95163.44;;;22.34;86.35
13029;BME280;6581;42.662;23.402;2022-09-02T08:04:45;95167.94;;;22.49;86.97
13029;BME280;6581;42.662;23.402;2022-09-02T08:07:13;95175.16;;;22.52;86.43
13029;BME280;6581;42.662;23.402;2022-09-02T08:09:43;95159.78;;;22.62;85.99
13029;BME280;6581;42.662;23.402;2022-09-02T08:12:14;95169.41;;;22.63;86.10
13029;BME280;6581;42.662;23.402;2022-09-02T08:14:42;95172.28;;;22.69;86.21
13029;BME280;6581;42.662;23.402;2022-09-02T08:17:34;95167.78;;;22.66;85.23
13029;BME280;6581;42.662;23.402;2022-09-02T08:20:02;95182.38;;;22.55;84.52
13029;BME280;6581;42.662;23.402;2022-09-02T08:22:32;95179.44;;;22.63;83.96
13029;BME280;6581;42.662;23.402;2022-09-02T08:24:59;95178.06;;;22.58;85.13
13029;BME280;6581;42.662;23.402;2022-09-02T08:27:28;95172.97;;;22.60;85.23
13029;BME280;6581;42.662;23.402;2022-09-02T08:29:57;95174.81;;;22.63;85.68
13029;BME280;6581;42.662;23.402;2022-09-02T08:32:26;95170.91;;;22.64;85.75
13029;BME280;6581;42.662;23.402;2022-09-02T08:34:53;95176.28;;;22.77;85.93
13029;BME280;6581;42.662;23.402;2022-09-02T08:37:21;95163.78;;;22.70;85.06
13029;BME280;6581;42.662;23.402;2022-09-02T08:39:48;95164.94;;;22.69;85.49
13029;BME280;6581;42.662;23.402;2022-09-02T08:42:21;95163.47;;;22.68;84.71
13029;BME280;6581;42.662;23.402;2022-09-02T08:44:53;95162.06;;;22.64;85.66
13029;BME280;6581;42.662;23.402;2022-09-02T08:47:27;95158.16;;;22.65;85.68
13029;BME280;6581;42.662;23.402;2022-09-02T08:49:59;95163.38;;;22.59;85.82
13029;BME280;6581;42.662;23.402;2022-09-02T08:52:35;95172.88;;;22.51;85.91
13029;BME280;6581;42.662;23.402;2022-09-02T08:55:05;95157.44;;;22.51;85.40
13029;BME280;6581;42.662;23.402;2022-09-02T08:57:34;95157.53;;;22.61;85.65
13029;BME280;6581;42.662;23.402;2022-09-02T09:00:05;95162.03;;;22.76;83.79
13029;BME280;6581;42.662;23.402;2022-09-02T09:02:42;95149.09;;;22.93;83.31
13029;BME280;6581;42.662;23.402;2022-09-02T09:05:31;95162.41;;;23.09;83.03
13029;BME280;6581;42.662;23.402;2022-09-02T09:08:10;95160.91;;;23.08;82.32
13029;BME280;6581;42.662;23.402;2022-09-02T09:10:45;95162.19;;;23.25;81.98
13029;BME280;6581;42.662;23.402;2022-09-02T09:16:36;95150.22;;;23.57;82.26
13029;BME280;6581;42.662;23.402;2022-09-02T09:19:09;95143.00;;;23.54;81.62
13029;BME280;6581;42.662;23.402;2022-09-02T09:21:37;95138.09;;;23.71;81.30
13029;BME280;6581;42.662;23.402;2022-09-02T09:24:17;95146.38;;;23.67;81.31
13029;BME280;6581;42.662;23.402;2022-09-02T09:26:47;95143.22;;;23.69;79.33
13029;BME280;6581;42.662;23.402;2022-09-02T09:29:14;95145.84;;;23.51;80.54
13029;BME280;6581;42.662;23.402;2022-09-02T09:31:43;95140.88;;;23.49;79.76
13029;BME280;6581;42.662;23.402;2022-09-02T09:34:13;95132.50;;;23.56;79.93
13029;BME280;6581;42.662;23.402;2022-09-02T09:36:48;95138.56;;;23.69;80.69
13029;BME280;6581;42.662;23.402;2022-09-02T09:39:21;95139.75;;;23.68;79.96
13029;BME280;6581;42.662;23.402;2022-09-02T09:41:50;95133.59;;;23.68;79.71
13029;BME280;6581;42.662;23.402;2022-09-02T09:44:34;95135.66;;;24.04;78.54
13029;BME280;6581;42.662;23.402;2022-09-02T09:47:06;95136.31;;;24.26;76.75
13029;BME280;6581;42.662;23.402;2022-09-02T09:50:10;95132.91;;;23.95;76.39
13029;BME280;6581;42.662;23.402;2022-09-02T09:52:38;95129.16;;;23.92;78.45
13029;BME280;6581;42.662;23.402;2022-09-02T09:55:10;95134.88;;;23.94;78.48
13029;BME280;6581;42.662;23.402;2022-09-02T09:57:38;95140.28;;;23.94;78.02
13029;BME280;6581;42.662;23.402;2022-09-02T10:00:18;95134.88;;;23.94;77.91
13029;BME280;6581;42.662;23.402;2022-09-02T10:02:50;95137.44;;;24.07;77.53
13029;BME280;6581;42.662;23.402;2022-09-02T10:05:30;95142.09;;;24.06;77.61
13029;BME280;6581;42.662;23.402;2022-09-02T10:07:59;95150.34;;;23.94;77.30
13029;BME280;6581;42.662;23.402;2022-09-02T10:10:29;95144.50;;;23.95;76.46
13029;BME280;6581;42.662;23.402;2022-09-02T10:12:59;95147.22;;;23.95;75.75
13029;BME280;6581;42.662;23.402;2022-09-02T10:15:35;95135.47;;;23.89;76.87
13029;BME280;6581;42.662;23.402;2022-09-02T10:18:19;95131.56;;;23.90;76.80
13029;BME280;6581;42.662;23.402;2022-09-02T10:20:55;95139.88;;;24.05;77.30
13029;BME280;6581;42.662;23.402;2022-09-02T10:23:49;95135.41;;;24.20;77.61
13029;BME280;6581;42.662;23.402;2022-09-02T10:26:24;95136.16;;;24.39;77.01
13029;BME280;6581;42.662;23.402;2022-09-02T10:29:17;95140.72;;;24.51;76.66
13029;BME280;6581;42.662;23.402;2022-09-02T10:31:54;95134.22;;;24.48;76.43
13029;BME280;6581;42.662;23.402;2022-09-02T10:34:33;95132.84;;;24.16;78.13
13029;BME280;6581;42.662;23.402;2022-09-02T10:37:11;95130.84;;;24.08;78.39
13029;BME280;6581;42.662;23.402;2022-09-02T10:40:01;95136.34;;;24.53;76.05
13029;BME280;6581;42.662;23.402;2022-09-02T10:42:38;95132.09;;;24.43;75.85
13029;BME280;6581;42.662;23.402;2022-09-02T10:45:13;95136.94;;;24.39;76.57
13029;BME280;6581;42.662;23.402;2022-09-02T10:47:45;95135.28;;;24.33;75.85
13029;BME280;6581;42.662;23.402;2022-09-02T10:50:25;95134.53;;;24.50;75.63
13029;BME280;6581;42.662;23.402;2022-09-02T10:53:13;95128.50;;;24.73;75.46
13029;BME280;6581;42.662;23.402;2022-09-02T10:55:50;95132.66;;;25.29;73.26
13029;BME280;6581;42.662;23.402;2022-09-02T10:58:25;95138.78;;;25.48;71.65
13029;BME280;6581;42.662;23.402;2022-09-02T11:00:56;95127.47;;;25.49;72.13
13029;BME280;6581;42.662;23.402;2022-09-02T11:03:29;95128.91;;;25.27;72.78
13029;BME280;6581;42.662;23.402;2022-09-02T11:06:06;95126.59;;;25.43;71.08
13029;BME280;6581;42.662;23.402;2022-09-02T11:08:38;95129.38;;;25.25;71.03
13029;BME280;6581;42.662;23.402;2022-09-02T11:11:09;95123.59;;;25.41;70.84
13029;BME280;6581;42.662;23.402;2022-09-02T11:13:52;95120.25;;;25.55;70.81
13029;BME280;6581;42.662;23.402;2022-09-02T11:16:23;95122.06;;;25.82;69.19
13029;BME280;6581;42.662;23.402;2022-09-02T11:18:59;95114.88;;;26.03;68.53
13029;BME280;6581;42.662;23.402;2022-09-02T11:21:48;95111.59;;;26.23;68.05
13029;BME280;6581;42.662;23.402;2022-09-02T11:24:22;95105.13;;;26.20;67.34
13029;BME280;6581;42.662;23.402;2022-09-02T11:26:56;95110.91;;;25.89;68.05
13029;BME280;6581;42.662;23.402;2022-09-02T11:29:31;95105.53;;;25.71;68.87
13029;BME280;6581;42.662;23.402;2022-09-02T11:32:09;95098.84;;;25.48;70.02
13029;BME280;6581;42.662;23.402;2022-09-02T11:34:43;95101.66;;;25.21;70.76
13029;BME280;6581;42.662;23.402;2022-09-02T11:37:25;95098.06;;;25.15;71.21
13029;BME280;6581;42.662;23.402;2022-09-02T11:39:58;95088.41;;;25.23;71.65
13029;BME280;6581;42.662;23.402;2022-09-02T11:42:38;95080.38;;;25.38;71.49
13029;BME280;6581;42.662;23.402;2022-09-02T11:48:11;95076.50;;;25.53;70.50
13029;BME280;6581;42.662;23.402;2022-09-02T11:50:53;95062.84;;;25.81;69.98
13029;BME280;6581;42.662;23.402;2022-09-02T11:53:29;95064.19;;;25.62;70.66
13029;BME280;6581;42.662;23.402;2022-09-02T11:56:00;95059.59;;;25.68;70.80
13029;BME280;6581;42.662;23.402;2022-09-02T11:58:34;95063.88;;;25.83;71.08
13029;BME280;6581;42.662;23.402;2022-09-02T12:01:21;95062.19;;;25.53;71.32
13029;BME280;6581;42.662;23.402;2022-09-02T12:03:53;95068.22;;;25.66;71.78
13029;BME280;6581;42.662;23.402;2022-09-02T12:06:22;95078.50;;;25.86;71.06
13029;BME280;6581;42.662;23.402;2022-09-02T12:09:10;95083.69;;;25.75;70.22
13029;BME280;6581;42.662;23.402;2022-09-02T12:11:48;95079.13;;;25.81;70.21
13029;BME280;6581;42.662;23.402;2022-09-02T12:17:33;95081.38;;;26.06;70.30
13029;BME280;6581;42.662;23.402;2022-09-02T12:20:03;95075.69;;;25.71;69.49
13029;BME280;6581;42.662;23.402;2022-09-02T12:22:34;95077.41;;;25.92;69.29
13029;BME280;6581;42.662;23.402;2022-09-02T12:25:40;95072.50;;;26.06;69.00
13029;BME280;6581;42.662;23.402;2022-09-02T12:28:31;95061.13;;;26.16;68.36
13029;BME280;6581;42.662;23.402;2022-09-02T12:31:15;95058.63;;;26.27;67.66
13029;BME280;6581;42.662;23.402;2022-09-02T12:33:44;95049.13;;;26.46;67.97
13029;BME280;6581;42.662;23.402;2022-09-02T12:36:44;95056.66;;;26.04;68.52
13029;BME280;6581;42.662;23.402;2022-09-02T12:39:44;95041.81;;;25.90;69.76
13029;BME280;6581;42.662;23.402;2022-09-02T12:42:23;95038.59;;;25.77;70.00
13029;BME280;6581;42.662;23.402;2022-09-02T12:45:01;95043.91;;;25.95;69.52
13029;BME280;6581;42.662;23.402;2022-09-02T12:47:41;95031.28;;;25.92;69.48
13029;BME280;6581;42.662;23.402;2022-09-02T12:50:20;95032.47;;;25.68;70.59
13029;BME280;6581;42.662;23.402;2022-09-02T12:52:50;95038.13;;;25.55;71.65
13029;BME280;6581;42.662;23.402;2022-09-02T12:55:22;95024.28;;;25.44;71.58
13029;BME280;6581;42.662;23.402;2022-09-02T12:57:54;95025.91;;;25.50;72.11
13029;BME280;6581;42.662;23.402;2022-09-02T13:01:00;95022.75;;;25.52;71.66
13029;BME280;6581;42.662;23.402;2022-09-02T13:06:34;95035.09;;;25.20;72.41
13029;BME280;6581;42.662;23.402;2022-09-02T13:15:30;95027.69;;;24.79;72.97
13029;BME280;6581;42.662;23.402;2022-09-02T13:18:24;95029.50;;;24.72;72.86
13029;BME280;6581;42.662;23.402;2022-09-02T13:21:23;95033.72;;;24.73;72.33
13029;BME280;6581;42.662;23.402;2022-09-02T13:24:34;95028.88;;;24.78;70.93
13029;BME280;6581;42.662;23.402;2022-09-02T13:27:21;95027.06;;;24.84;70.67
13029;BME280;6581;42.662;23.402;2022-09-02T13:30:06;95018.19;;;24.83;70.85
13029;BME280;6581;42.662;23.402;2022-09-02T13:32:37;95018.63;;;24.82;71.24
13029;BME280;6581;42.662;23.402;2022-09-02T13:35:06;95024.66;;;24.77;72.09
13029;BME280;6581;42.662;23.402;2022-09-02T13:37:35;95031.94;;;24.52;77.15
13029;BME280;6581;42.662;23.402;2022-09-02T13:40:05;95030.91;;;24.22;82.01
13029;BME280;6581;42.662;23.402;2022-09-02T13:42:34;95027.56;;;24.00;84.88
13029;BME280;6581;42.662;23.402;2022-09-02T13:45:10;95034.88;;;23.63;89.08
13029;BME280;6581;42.662;23.402;2022-09-02T13:47:42;95038.50;;;23.29;91.94
13029;BME280;6581;42.662;23.402;2022-09-02T13:50:12;95047.44;;;23.08;95.20